sensor_id;sensor_type;location;lat;lon;timestamp;P1;durP1;ratioP1;P2;durP2;ratioP2
37785;SDS011;23625;48.784;9.336;2023-05-10T00:00:12;6.35;;;1.92;;
37785;SDS011;23625;48.784;9.336;2023-05-10T00:02:38;1.67;;;1.45;;
37785;SDS011;23625;48.784;9.336;2023-05-10T00:05:04;3.80;;;1.60;;
37785;SDS011;23625;48.784;9.336;2023-05-10T00:07:30;3.95;;;1.30;;
37785;SDS011;23625;48.784;9.336;2023-05-10T00:09:56;3.75;;;1.60;;
37785;SDS011;23625;48.784;9.336;2023-05-10T00:12:21;4.13;;;1.83;;
37785;SDS011;23625;48.784;9.336;2023-05-10T00:14:47;1.52;;;1.35;;
37785;SDS011;23625;48.784;9.336;2023-05-10T00:17:13;1.63;;;1.23;;
37785;SDS011;23625;48.784;9.336;2023-05-10T00:19:38;1.25;;;1.00;;
37785;SDS011;23625;48.784;9.336;2023-05-10T00:22:04;4.35;;;1.00;;
37785;SDS011;23625;48.784;9.336;2023-05-10T00:24:29;2.20;;;0.80;;
37785;SDS011;23625;48.784;9.336;2023-05-10T00:26:55;1.40;;;0.88;;
37785;SDS011;23625;48.784;9.336;2023-05-10T00:29:20;2.88;;;0.60;;
37785;SDS011;23625;48.784;9.336;2023-05-10T00:31:46;1.85;;;0.63;;
37785;SDS011;23625;48.784;9.336;2023-05-10T00:34:12;1.33;;;0.55;;
37785;SDS011;23625;48.784;9.336;2023-05-10T00:36:37;2.75;;;0.52;;
37785;SDS011;23625;48.784;9.336;2023-05-10T00:39:03;8.27;;;0.90;;
37785;SDS011;23625;48.784;9.336;2023-05-10T00:41:29;1.15;;;0.70;;
37785;SDS011;23625;48.784;9.336;2023-05-10T00:43:57;2.15;;;0.68;;
37785;SDS011;23625;48.784;9.336;2023-05-10T00:46:23;2.15;;;0.68;;
37785;SDS011;23625;48.784;9.336;2023-05-10T00:48:49;0.93;;;0.50;;
37785;SDS011;23625;48.784;9.336;2023-05-10T00:51:15;0.88;;;0.40;;
37785;SDS011;23625;48.784;9.336;2023-05-10T00:53:41;0.40;;;0.30;;
37785;SDS011;23625;48.784;9.336;2023-05-10T00:56:07;0.52;;;0.50;;
37785;SDS011;23625;48.784;9.336;2023-05-10T00:58:33;0.32;;;0.32;;
37785;SDS011;23625;48.784;9.336;2023-05-10T01:00:59;1.05;;;0.30;;
37785;SDS011;23625;48.784;9.336;2023-05-10T01:03:25;0.32;;;0.30;;
37785;SDS011;23625;48.784;9.336;2023-05-10T01:05:51;1.13;;;0.40;;
37785;SDS011;23625;48.784;9.336;2023-05-10T01:08:16;0.30;;;0.30;;
37785;SDS011;23625;48.784;9.336;2023-05-10T01:10:42;0.60;;;0.30;;
37785;SDS011;23625;48.784;9.336;2023-05-10T01:13:08;1.75;;;0.15;;
37785;SDS011;23625;48.784;9.336;2023-05-10T01:15:34;0.20;;;0.20;;
37785;SDS011;23625;48.784;9.336;2023-05-10T01:18:01;1.90;;;0.20;;
37785;SDS011;23625;48.784;9.336;2023-05-10T01:20:28;5.35;;;0.25;;
37785;SDS011;23625;48.784;9.336;2023-05-10T01:29:11;1.05;;;0.30;;
37785;SDS011;23625;48.784;9.336;2023-05-10T01:34:35;0.20;;;0.20;;
37785;SDS011;23625;48.784;9.336;2023-05-10T01:37:24;0.45;;;0.30;;
37785;SDS011;23625;48.784;9.336;2023-05-10T01:42:56;2.88;;;0.40;;
37785;SDS011;23625;48.784;9.336;2023-05-10T01:45:39;0.43;;;0.30;;
37785;SDS011;23625;48.784;9.336;2023-05-10T01:48:12;1.95;;;0.30;;
37785;SDS011;23625;48.784;9.336;2023-05-10T01:50:41;1.90;;;0.30;;
37785;SDS011;23625;48.784;9.336;2023-05-10T01:53:10;2.05;;;0.30;;
37785;SDS011;23625;48.784;9.336;2023-05-10T01:55:47;0.20;;;0.20;;
37785;SDS011;23625;48.784;9.336;2023-05-10T01:58:27;0.75;;;0.30;;
37785;SDS011;23625;48.784;9.336;2023-05-10T02:00:55;1.35;;;0.52;;
37785;SDS011;23625;48.784;9.336;2023-05-10T02:03:24;5.75;;;0.30;;
37785;SDS011;23625;48.784;9.336;2023-05-10T02:05:52;2.58;;;0.30;;
37785;SDS011;23625;48.784;9.336;2023-05-10T02:08:19;0.15;;;0.15;;
37785;SDS011;23625;48.784;9.336;2023-05-10T02:10:47;5.47;;;0.30;;
37785;SDS011;23625;48.784;9.336;2023-05-10T02:13:15;3.90;;;0.38;;
37785;SDS011;23625;48.784;9.336;2023-05-10T02:15:42;2.20;;;0.50;;
37785;SDS011;23625;48.784;9.336;2023-05-10T02:18:08;1.52;;;0.40;;
37785;SDS011;23625;48.784;9.336;2023-05-10T02:20:35;7.03;;;0.35;;
37785;SDS011;23625;48.784;9.336;2023-05-10T02:23:02;0.60;;;0.50;;
37785;SDS011;23625;48.784;9.336;2023-05-10T02:25:28;0.85;;;0.30;;
37785;SDS011;23625;48.784;9.336;2023-05-10T02:27:56;2.05;;;0.40;;
37785;SDS011;23625;48.784;9.336;2023-05-10T02:30:23;1.33;;;0.30;;
37785;SDS011;23625;48.784;9.336;2023-05-10T02:32:49;1.25;;;0.40;;
37785;SDS011;23625;48.784;9.336;2023-05-10T02:35:16;2.50;;;0.35;;
37785;SDS011;23625;48.784;9.336;2023-05-10T02:37:42;0.50;;;0.50;;
37785;SDS011;23625;48.784;9.336;2023-05-10T02:40:10;2.92;;;0.40;;
37785;SDS011;23625;48.784;9.336;2023-05-10T02:42:37;2.15;;;0.40;;
37785;SDS011;23625;48.784;9.336;2023-05-10T02:45:07;1.33;;;0.30;;
37785;SDS011;23625;48.784;9.336;2023-05-10T02:47:36;8.13;;;0.45;;
37785;SDS011;23625;48.784;9.336;2023-05-10T02:50:02;0.82;;;0.52;;
37785;SDS011;23625;48.784;9.336;2023-05-10T02:52:29;0.50;;;0.40;;
37785;SDS011;23625;48.784;9.336;2023-05-10T02:55:02;1.65;;;0.40;;
37785;SDS011;23625;48.784;9.336;2023-05-10T02:57:31;1.70;;;0.38;;
37785;SDS011;23625;48.784;9.336;2023-05-10T02:59:59;1.67;;;0.50;;
37785;SDS011;23625;48.784;9.336;2023-05-10T03:02:26;3.70;;;0.68;;
37785;SDS011;23625;48.784;9.336;2023-05-10T03:04:51;24.30;;;0.95;;
37785;SDS011;23625;48.784;9.336;2023-05-10T03:07:17;2.08;;;0.47;;
37785;SDS011;23625;48.784;9.336;2023-05-10T03:09:46;3.35;;;0.40;;
37785;SDS011;23625;48.784;9.336;2023-05-10T03:20:22;0.60;;;0.60;;
37785;SDS011;23625;48.784;9.336;2023-05-10T03:22:53;3.47;;;0.60;;
37785;SDS011;23625;48.784;9.336;2023-05-10T03:25:25;3.70;;;0.70;;
37785;SDS011;23625;48.784;9.336;2023-05-10T03:27:51;4.60;;;0.65;;
37785;SDS011;23625;48.784;9.336;2023-05-10T03:30:17;8.10;;;0.65;;
37785;SDS011;23625;48.784;9.336;2023-05-10T03:32:44;2.05;;;0.55;;
37785;SDS011;23625;48.784;9.336;2023-05-10T03:35:10;2.35;;;0.40;;
37785;SDS011;23625;48.784;9.336;2023-05-10T03:37:38;2.88;;;0.70;;
37785;SDS011;23625;48.784;9.336;2023-05-10T03:40:04;2.65;;;0.50;;
37785;SDS011;23625;48.784;9.336;2023-05-10T03:42:30;2.95;;;0.52;;
37785;SDS011;23625;48.784;9.336;2023-05-10T03:44:56;2.88;;;0.60;;
37785;SDS011;23625;48.784;9.336;2023-05-10T03:47:21;2.28;;;0.60;;
37785;SDS011;23625;48.784;9.336;2023-05-10T03:49:47;2.70;;;0.80;;
37785;SDS011;23625;48.784;9.336;2023-05-10T03:52:13;1.73;;;0.60;;
37785;SDS011;23625;48.784;9.336;2023-05-10T03:54:39;3.10;;;0.70;;
37785;SDS011;23625;48.784;9.336;2023-05-10T03:57:04;0.88;;;0.80;;
37785;SDS011;23625;48.784;9.336;2023-05-10T03:59:30;1.77;;;0.77;;
37785;SDS011;23625;48.784;9.336;2023-05-10T04:01:56;1.63;;;0.80;;
37785;SDS011;23625;48.784;9.336;2023-05-10T04:04:21;3.72;;;0.60;;
37785;SDS011;23625;48.784;9.336;2023-05-10T04:06:48;0.95;;;0.60;;
37785;SDS011;23625;48.784;9.336;2023-05-10T04:09:13;3.60;;;0.98;;
37785;SDS011;23625;48.784;9.336;2023-05-10T04:11:39;3.47;;;1.42;;
37785;SDS011;23625;48.784;9.336;2023-05-10T04:14:05;1.75;;;0.70;;
37785;SDS011;23625;48.784;9.336;2023-05-10T04:16:30;3.28;;;0.77;;
37785;SDS011;23625;48.784;9.336;2023-05-10T04:18:56;4.43;;;0.90;;
37785;SDS011;23625;48.784;9.336;2023-05-10T04:21:22;4.78;;;0.88;;
37785;SDS011;23625;48.784;9.336;2023-05-10T04:23:47;6.88;;;0.90;;
37785;SDS011;23625;48.784;9.336;2023-05-10T04:26:13;8.07;;;1.65;;
37785;SDS011;23625;48.784;9.336;2023-05-10T04:28:39;2.65;;;1.15;;
37785;SDS011;23625;48.784;9.336;2023-05-10T04:31:05;7.45;;;1.40;;
37785;SDS011;23625;48.784;9.336;2023-05-10T04:33:32;2.67;;;1.50;;
37785;SDS011;23625;48.784;9.336;2023-05-10T04:35:58;8.18;;;1.35;;
37785;SDS011;23625;48.784;9.336;2023-05-10T04:38:23;4.43;;;1.70;;
37785;SDS011;23625;48.784;9.336;2023-05-10T04:40:49;4.63;;;1.42;;
37785;SDS011;23625;48.784;9.336;2023-05-10T04:43:15;4.22;;;1.40;;
37785;SDS011;23625;48.784;9.336;2023-05-10T04:45:40;3.70;;;1.58;;
37785;SDS011;23625;48.784;9.336;2023-05-10T04:48:06;1.17;;;1.08;;
37785;SDS011;23625;48.784;9.336;2023-05-10T04:50:32;3.08;;;1.05;;
37785;SDS011;23625;48.784;9.336;2023-05-10T04:52:58;1.63;;;1.20;;
37785;SDS011;23625;48.784;9.336;2023-05-10T04:55:24;2.70;;;1.33;;
37785;SDS011;23625;48.784;9.336;2023-05-10T04:57:49;2.47;;;1.40;;
37785;SDS011;23625;48.784;9.336;2023-05-10T05:00:15;7.65;;;1.35;;
37785;SDS011;23625;48.784;9.336;2023-05-10T05:02:44;2.85;;;1.02;;
37785;SDS011;23625;48.784;9.336;2023-05-10T05:05:10;4.20;;;1.10;;
37785;SDS011;23625;48.784;9.336;2023-05-10T05:07:36;10.70;;;1.02;;
37785;SDS011;23625;48.784;9.336;2023-05-10T05:10:03;1.58;;;0.90;;
37785;SDS011;23625;48.784;9.336;2023-05-10T05:12:32;7.25;;;1.40;;
37785;SDS011;23625;48.784;9.336;2023-05-10T05:14:59;2.40;;;1.23;;
37785;SDS011;23625;48.784;9.336;2023-05-10T05:17:26;2.20;;;0.98;;
37785;SDS011;23625;48.784;9.336;2023-05-10T05:19:51;4.40;;;1.77;;
37785;SDS011;23625;48.784;9.336;2023-05-10T05:22:17;3.30;;;1.23;;
37785;SDS011;23625;48.784;9.336;2023-05-10T05:24:44;2.60;;;1.27;;
37785;SDS011;23625;48.784;9.336;2023-05-10T05:27:10;2.03;;;1.02;;
37785;SDS011;23625;48.784;9.336;2023-05-10T05:29:36;3.47;;;1.27;;
37785;SDS011;23625;48.784;9.336;2023-05-10T05:32:01;4.00;;;1.42;;
37785;SDS011;23625;48.784;9.336;2023-05-10T05:34:27;2.05;;;1.05;;
37785;SDS011;23625;48.784;9.336;2023-05-10T05:36:52;2.85;;;1.30;;
37785;SDS011;23625;48.784;9.336;2023-05-10T05:39:18;0.90;;;0.90;;
37785;SDS011;23625;48.784;9.336;2023-05-10T05:41:44;5.72;;;1.20;;
37785;SDS011;23625;48.784;9.336;2023-05-10T05:44:11;4.45;;;1.70;;
37785;SDS011;23625;48.784;9.336;2023-05-10T05:46:36;2.92;;;1.35;;
37785;SDS011;23625;48.784;9.336;2023-05-10T05:49:02;1.63;;;1.00;;
37785;SDS011;23625;48.784;9.336;2023-05-10T05:51:27;7.47;;;1.20;;
37785;SDS011;23625;48.784;9.336;2023-05-10T05:53:53;3.75;;;1.20;;
37785;SDS011;23625;48.784;9.336;2023-05-10T05:56:19;4.32;;;1.35;;
37785;SDS011;23625;48.784;9.336;2023-05-10T05:58:49;3.42;;;1.40;;
37785;SDS011;23625;48.784;9.336;2023-05-10T06:01:15;9.23;;;1.50;;
37785;SDS011;23625;48.784;9.336;2023-05-10T06:03:41;3.45;;;1.30;;
37785;SDS011;23625;48.784;9.336;2023-05-10T06:06:06;7.10;;;1.83;;
37785;SDS011;23625;48.784;9.336;2023-05-10T06:08:32;4.30;;;1.70;;
37785;SDS011;23625;48.784;9.336;2023-05-10T06:10:58;2.38;;;1.23;;
37785;SDS011;23625;48.784;9.336;2023-05-10T06:13:25;5.20;;;1.45;;
37785;SDS011;23625;48.784;9.336;2023-05-10T06:15:53;5.63;;;1.50;;
37785;SDS011;23625;48.784;9.336;2023-05-10T06:18:19;2.55;;;1.40;;
37785;SDS011;23625;48.784;9.336;2023-05-10T06:20:44;2.17;;;1.58;;
37785;SDS011;23625;48.784;9.336;2023-05-10T06:23:10;3.03;;;1.30;;
37785;SDS011;23625;48.784;9.336;2023-05-10T06:25:36;3.67;;;1.17;;
37785;SDS011;23625;48.784;9.336;2023-05-10T06:28:01;1.92;;;1.60;;
37785;SDS011;23625;48.784;9.336;2023-05-10T06:30:27;1.92;;;1.48;;
37785;SDS011;23625;48.784;9.336;2023-05-10T06:32:53;2.88;;;1.15;;
37785;SDS011;23625;48.784;9.336;2023-05-10T06:35:19;4.82;;;1.25;;
37785;SDS011;23625;48.784;9.336;2023-05-10T06:37:44;2.85;;;1.08;;
37785;SDS011;23625;48.784;9.336;2023-05-10T06:40:11;3.55;;;0.95;;
37785;SDS011;23625;48.784;9.336;2023-05-10T06:42:37;4.65;;;1.20;;
37785;SDS011;23625;48.784;9.336;2023-05-10T06:45:03;1.70;;;0.98;;
37785;SDS011;23625;48.784;9.336;2023-05-10T06:47:28;2.33;;;1.25;;
37785;SDS011;23625;48.784;9.336;2023-05-10T06:49:54;8.40;;;0.90;;
37785;SDS011;23625;48.784;9.336;2023-05-10T06:52:20;3.25;;;1.10;;
37785;SDS011;23625;48.784;9.336;2023-05-10T06:54:46;2.10;;;1.30;;
37785;SDS011;23625;48.784;9.336;2023-05-10T06:57:11;3.88;;;1.42;;
37785;SDS011;23625;48.784;9.336;2023-05-10T06:59:37;2.33;;;1.48;;
37785;SDS011;23625;48.784;9.336;2023-05-10T07:02:03;3.47;;;1.20;;
37785;SDS011;23625;48.784;9.336;2023-05-10T07:04:28;3.90;;;1.73;;
37785;SDS011;23625;48.784;9.336;2023-05-10T07:06:54;1.52;;;1.00;;
37785;SDS011;23625;48.784;9.336;2023-05-10T07:09:19;2.78;;;1.30;;
37785;SDS011;23625;48.784;9.336;2023-05-10T07:11:45;6.00;;;1.00;;
37785;SDS011;23625;48.784;9.336;2023-05-10T07:14:11;1.88;;;1.33;;
37785;SDS011;23625;48.784;9.336;2023-05-10T07:16:36;4.55;;;1.25;;
37785;SDS011;23625;48.784;9.336;2023-05-10T07:19:02;3.03;;;1.15;;
37785;SDS011;23625;48.784;9.336;2023-05-10T07:21:28;2.40;;;1.30;;
37785;SDS011;23625;48.784;9.336;2023-05-10T07:23:53;5.35;;;1.50;;
37785;SDS011;23625;48.784;9.336;2023-05-10T07:26:19;1.77;;;1.25;;
37785;SDS011;23625;48.784;9.336;2023-05-10T07:28:45;2.47;;;1.35;;
37785;SDS011;23625;48.784;9.336;2023-05-10T07:31:11;9.93;;;1.38;;
37785;SDS011;23625;48.784;9.336;2023-05-10T07:33:37;4.65;;;1.20;;
37785;SDS011;23625;48.784;9.336;2023-05-10T07:36:02;3.97;;;1.30;;
37785;SDS011;23625;48.784;9.336;2023-05-10T07:38:28;2.15;;;1.23;;
37785;SDS011;23625;48.784;9.336;2023-05-10T07:40:54;7.82;;;1.40;;
37785;SDS011;23625;48.784;9.336;2023-05-10T07:43:19;3.53;;;1.17;;
37785;SDS011;23625;48.784;9.336;2023-05-10T07:45:45;2.17;;;1.17;;
37785;SDS011;23625;48.784;9.336;2023-05-10T07:48:10;3.63;;;1.45;;
37785;SDS011;23625;48.784;9.336;2023-05-10T07:50:36;2.70;;;1.23;;
37785;SDS011;23625;48.784;9.336;2023-05-10T07:53:02;3.88;;;1.85;;
37785;SDS011;23625;48.784;9.336;2023-05-10T07:55:27;3.17;;;1.45;;
37785;SDS011;23625;48.784;9.336;2023-05-10T07:57:53;2.70;;;1.00;;
37785;SDS011;23625;48.784;9.336;2023-05-10T08:00:19;3.58;;;1.38;;
37785;SDS011;23625;48.784;9.336;2023-05-10T08:02:45;2.90;;;1.50;;
37785;SDS011;23625;48.784;9.336;2023-05-10T08:05:11;5.00;;;1.40;;
37785;SDS011;23625;48.784;9.336;2023-05-10T08:07:37;3.03;;;1.67;;
37785;SDS011;23625;48.784;9.336;2023-05-10T08:10:03;1.48;;;1.00;;
37785;SDS011;23625;48.784;9.336;2023-05-10T08:12:29;4.05;;;1.33;;
37785;SDS011;23625;48.784;9.336;2023-05-10T08:14:55;3.65;;;1.40;;
37785;SDS011;23625;48.784;9.336;2023-05-10T08:17:20;0.95;;;0.82;;
37785;SDS011;23625;48.784;9.336;2023-05-10T08:19:46;2.28;;;0.95;;
37785;SDS011;23625;48.784;9.336;2023-05-10T08:22:12;3.92;;;0.98;;
37785;SDS011;23625;48.784;9.336;2023-05-10T08:24:37;2.92;;;1.10;;
37785;SDS011;23625;48.784;9.336;2023-05-10T08:27:07;1.83;;;0.77;;
37785;SDS011;23625;48.784;9.336;2023-05-10T08:29:33;1.85;;;1.05;;
37785;SDS011;23625;48.784;9.336;2023-05-10T08:31:59;1.65;;;0.73;;
37785;SDS011;23625;48.784;9.336;2023-05-10T08:34:25;5.18;;;1.08;;
37785;SDS011;23625;48.784;9.336;2023-05-10T08:36:51;1.95;;;1.00;;
37785;SDS011;23625;48.784;9.336;2023-05-10T08:39:17;1.27;;;0.93;;
37785;SDS011;23625;48.784;9.336;2023-05-10T08:41:43;3.10;;;0.90;;
37785;SDS011;23625;48.784;9.336;2023-05-10T08:44:11;1.27;;;0.77;;
37785;SDS011;23625;48.784;9.336;2023-05-10T08:46:37;2.72;;;1.20;;
37785;SDS011;23625;48.784;9.336;2023-05-10T08:49:08;5.45;;;1.00;;
37785;SDS011;23625;48.784;9.336;2023-05-10T08:51:38;1.45;;;0.80;;
37785;SDS011;23625;48.784;9.336;2023-05-10T08:54:08;1.65;;;1.00;;
37785;SDS011;23625;48.784;9.336;2023-05-10T08:56:34;4.78;;;0.85;;
37785;SDS011;23625;48.784;9.336;2023-05-10T08:58:59;2.67;;;1.00;;
37785;SDS011;23625;48.784;9.336;2023-05-10T09:01:25;3.05;;;1.25;;
37785;SDS011;23625;48.784;9.336;2023-05-10T09:03:52;4.03;;;1.30;;
37785;SDS011;23625;48.784;9.336;2023-05-10T09:06:18;3.05;;;1.55;;
37785;SDS011;23625;48.784;9.336;2023-05-10T09:08:44;1.45;;;0.63;;
37785;SDS011;23625;48.784;9.336;2023-05-10T09:11:11;1.75;;;0.52;;
37785;SDS011;23625;48.784;9.336;2023-05-10T09:13:37;1.55;;;0.75;;
37785;SDS011;23625;48.784;9.336;2023-05-10T09:16:03;0.70;;;0.55;;
37785;SDS011;23625;48.784;9.336;2023-05-10T09:18:29;1.27;;;0.60;;
37785;SDS011;23625;48.784;9.336;2023-05-10T09:20:55;1.83;;;0.60;;
37785;SDS011;23625;48.784;9.336;2023-05-10T09:23:21;5.75;;;1.83;;
37785;SDS011;23625;48.784;9.336;2023-05-10T09:25:47;5.82;;;2.38;;
37785;SDS011;23625;48.784;9.336;2023-05-10T09:28:12;2.92;;;1.38;;
37785;SDS011;23625;48.784;9.336;2023-05-10T09:30:38;1.63;;;0.73;;
37785;SDS011;23625;48.784;9.336;2023-05-10T09:33:04;2.85;;;1.20;;
37785;SDS011;23625;48.784;9.336;2023-05-10T09:35:31;0.55;;;0.40;;
37785;SDS011;23625;48.784;9.336;2023-05-10T09:37:59;0.38;;;0.38;;
37785;SDS011;23625;48.784;9.336;2023-05-10T09:40:28;3.10;;;0.70;;
37785;SDS011;23625;48.784;9.336;2023-05-10T09:42:58;0.55;;;0.30;;
37785;SDS011;23625;48.784;9.336;2023-05-10T09:45:28;0.75;;;0.40;;
37785;SDS011;23625;48.784;9.336;2023-05-10T09:47:58;0.95;;;0.50;;
37785;SDS011;23625;48.784;9.336;2023-05-10T09:50:27;1.75;;;0.40;;
37785;SDS011;23625;48.784;9.336;2023-05-10T09:55:22;2.10;;;0.40;;
37785;SDS011;23625;48.784;9.336;2023-05-10T09:57:49;1.55;;;0.50;;
37785;SDS011;23625;48.784;9.336;2023-05-10T10:00:24;1.90;;;0.43;;
37785;SDS011;23625;48.784;9.336;2023-05-10T10:02:54;1.08;;;0.40;;
37785;SDS011;23625;48.784;9.336;2023-05-10T10:05:31;1.33;;;0.45;;
37785;SDS011;23625;48.784;9.336;2023-05-10T10:07:57;1.73;;;0.45;;
37785;SDS011;23625;48.784;9.336;2023-05-10T10:10:24;1.02;;;0.50;;
37785;SDS011;23625;48.784;9.336;2023-05-10T10:12:50;2.50;;;0.40;;
37785;SDS011;23625;48.784;9.336;2023-05-10T10:15:16;1.58;;;0.40;;
37785;SDS011;23625;48.784;9.336;2023-05-10T10:17:43;1.58;;;0.60;;
37785;SDS011;23625;48.784;9.336;2023-05-10T10:20:09;3.78;;;0.60;;
37785;SDS011;23625;48.784;9.336;2023-05-10T10:22:36;0.65;;;0.40;;
37785;SDS011;23625;48.784;9.336;2023-05-10T10:25:02;2.38;;;0.40;;
37785;SDS011;23625;48.784;9.336;2023-05-10T10:27:37;1.55;;;0.63;;
37785;SDS011;23625;48.784;9.336;2023-05-10T10:35:54;2.15;;;0.50;;
37785;SDS011;23625;48.784;9.336;2023-05-10T10:38:22;4.60;;;0.47;;
37785;SDS011;23625;48.784;9.336;2023-05-10T10:40:56;1.63;;;0.65;;
37785;SDS011;23625;48.784;9.336;2023-05-10T10:43:27;1.00;;;0.45;;
37785;SDS011;23625;48.784;9.336;2023-05-10T10:48:49;1.45;;;0.65;;
37785;SDS011;23625;48.784;9.336;2023-05-10T10:51:32;3.15;;;0.40;;
37785;SDS011;23625;48.784;9.336;2023-05-10T10:54:08;1.27;;;0.43;;
37785;SDS011;23625;48.784;9.336;2023-05-10T10:56:35;1.35;;;0.43;;
37785;SDS011;23625;48.784;9.336;2023-05-10T10:59:00;6.53;;;0.60;;
37785;SDS011;23625;48.784;9.336;2023-05-10T11:01:26;1.05;;;0.40;;
37785;SDS011;23625;48.784;9.336;2023-05-10T11:08:57;3.33;;;0.65;;
37785;SDS011;23625;48.784;9.336;2023-05-10T11:11:23;1.10;;;0.65;;
37785;SDS011;23625;48.784;9.336;2023-05-10T11:13:49;2.50;;;0.85;;
37785;SDS011;23625;48.784;9.336;2023-05-10T11:18:40;0.65;;;0.30;;
37785;SDS011;23625;48.784;9.336;2023-05-10T11:21:16;1.73;;;0.70;;
37785;SDS011;23625;48.784;9.336;2023-05-10T11:26:14;0.47;;;0.40;;
37785;SDS011;23625;48.784;9.336;2023-05-10T11:28:47;1.13;;;0.35;;
37785;SDS011;23625;48.784;9.336;2023-05-10T11:31:14;2.90;;;0.60;;
37785;SDS011;23625;48.784;9.336;2023-05-10T11:36:14;5.47;;;0.60;;
37785;SDS011;23625;48.784;9.336;2023-05-10T11:38:41;2.80;;;0.45;;
37785;SDS011;23625;48.784;9.336;2023-05-10T11:41:08;0.60;;;0.30;;
37785;SDS011;23625;48.784;9.336;2023-05-10T11:43:35;2.75;;;0.63;;
37785;SDS011;23625;48.784;9.336;2023-05-10T11:46:03;1.15;;;0.32;;
37785;SDS011;23625;48.784;9.336;2023-05-10T11:48:30;0.68;;;0.40;;
37785;SDS011;23625;48.784;9.336;2023-05-10T11:50:56;0.40;;;0.40;;
37785;SDS011;23625;48.784;9.336;2023-05-10T11:53:22;1.30;;;0.47;;
37785;SDS011;23625;48.784;9.336;2023-05-10T11:55:50;1.88;;;0.60;;
37785;SDS011;23625;48.784;9.336;2023-05-10T11:58:17;2.08;;;0.40;;
37785;SDS011;23625;48.784;9.336;2023-05-10T12:00:43;2.42;;;0.40;;
37785;SDS011;23625;48.784;9.336;2023-05-10T12:03:10;4.05;;;0.50;;
37785;SDS011;23625;48.784;9.336;2023-05-10T12:05:36;1.55;;;0.40;;
37785;SDS011;23625;48.784;9.336;2023-05-10T12:08:15;1.13;;;0.50;;
37785;SDS011;23625;48.784;9.336;2023-05-10T12:10:44;1.17;;;0.45;;
37785;SDS011;23625;48.784;9.336;2023-05-10T12:13:10;2.38;;;0.52;;
37785;SDS011;23625;48.784;9.336;2023-05-10T12:15:38;1.80;;;0.60;;
37785;SDS011;23625;48.784;9.336;2023-05-10T12:18:03;5.95;;;0.60;;
37785;SDS011;23625;48.784;9.336;2023-05-10T12:20:30;2.13;;;0.82;;
37785;SDS011;23625;48.784;9.336;2023-05-10T12:22:57;1.52;;;0.50;;
37785;SDS011;23625;48.784;9.336;2023-05-10T12:25:24;3.13;;;0.90;;
37785;SDS011;23625;48.784;9.336;2023-05-10T12:27:56;2.13;;;0.88;;
37785;SDS011;23625;48.784;9.336;2023-05-10T12:30:30;1.33;;;0.55;;
37785;SDS011;23625;48.784;9.336;2023-05-10T12:33:00;1.38;;;0.60;;
37785;SDS011;23625;48.784;9.336;2023-05-10T12:35:31;3.90;;;0.75;;
37785;SDS011;23625;48.784;9.336;2023-05-10T12:37:57;1.80;;;0.85;;
37785;SDS011;23625;48.784;9.336;2023-05-10T12:40:26;3.42;;;0.47;;
37785;SDS011;23625;48.784;9.336;2023-05-10T12:42:52;1.92;;;0.90;;
37785;SDS011;23625;48.784;9.336;2023-05-10T12:45:17;3.25;;;1.00;;
37785;SDS011;23625;48.784;9.336;2023-05-10T12:47:43;0.93;;;0.60;;
37785;SDS011;23625;48.784;9.336;2023-05-10T12:50:09;4.93;;;0.70;;
37785;SDS011;23625;48.784;9.336;2023-05-10T12:52:40;3.47;;;0.80;;
37785;SDS011;23625;48.784;9.336;2023-05-10T12:55:06;1.27;;;0.77;;
37785;SDS011;23625;48.784;9.336;2023-05-10T12:57:35;1.25;;;0.90;;
37785;SDS011;23625;48.784;9.336;2023-05-10T13:00:00;1.17;;;0.95;;
37785;SDS011;23625;48.784;9.336;2023-05-10T13:02:26;2.20;;;0.70;;
37785;SDS011;23625;48.784;9.336;2023-05-10T13:04:52;7.95;;;1.08;;
37785;SDS011;23625;48.784;9.336;2023-05-10T13:07:18;2.38;;;0.77;;
37785;SDS011;23625;48.784;9.336;2023-05-10T13:09:43;4.60;;;0.93;;
37785;SDS011;23625;48.784;9.336;2023-05-10T13:12:09;3.88;;;0.80;;
37785;SDS011;23625;48.784;9.336;2023-05-10T13:14:35;4.22;;;0.93;;
37785;SDS011;23625;48.784;9.336;2023-05-10T13:17:00;3.00;;;0.70;;
37785;SDS011;23625;48.784;9.336;2023-05-10T13:19:26;3.95;;;0.98;;
37785;SDS011;23625;48.784;9.336;2023-05-10T13:21:51;1.05;;;0.85;;
37785;SDS011;23625;48.784;9.336;2023-05-10T13:24:17;2.60;;;1.27;;
37785;SDS011;23625;48.784;9.336;2023-05-10T13:26:43;6.22;;;0.93;;
37785;SDS011;23625;48.784;9.336;2023-05-10T13:29:08;1.85;;;0.85;;
37785;SDS011;23625;48.784;9.336;2023-05-10T13:31:34;2.25;;;0.98;;
37785;SDS011;23625;48.784;9.336;2023-05-10T13:34:01;3.00;;;1.25;;
37785;SDS011;23625;48.784;9.336;2023-05-10T13:36:27;1.15;;;0.60;;
37785;SDS011;23625;48.784;9.336;2023-05-10T13:38:53;6.80;;;1.00;;
37785;SDS011;23625;48.784;9.336;2023-05-10T13:41:21;5.22;;;0.90;;
37785;SDS011;23625;48.784;9.336;2023-05-10T13:43:47;3.33;;;0.90;;
37785;SDS011;23625;48.784;9.336;2023-05-10T13:46:14;4.50;;;1.42;;
37785;SDS011;23625;48.784;9.336;2023-05-10T13:48:39;4.25;;;0.95;;
37785;SDS011;23625;48.784;9.336;2023-05-10T13:51:05;2.00;;;0.90;;
37785;SDS011;23625;48.784;9.336;2023-05-10T13:53:30;3.17;;;0.77;;
37785;SDS011;23625;48.784;9.336;2023-05-10T13:55:56;3.17;;;0.95;;
37785;SDS011;23625;48.784;9.336;2023-05-10T13:58:22;3.95;;;1.10;;
37785;SDS011;23625;48.784;9.336;2023-05-10T14:00:48;5.28;;;1.10;;
37785;SDS011;23625;48.784;9.336;2023-05-10T14:03:14;2.80;;;0.98;;
37785;SDS011;23625;48.784;9.336;2023-05-10T14:05:39;1.02;;;0.75;;
37785;SDS011;23625;48.784;9.336;2023-05-10T14:08:05;3.97;;;0.98;;
37785;SDS011;23625;48.784;9.336;2023-05-10T14:10:30;5.93;;;0.75;;
37785;SDS011;23625;48.784;9.336;2023-05-10T14:12:56;4.63;;;0.88;;
37785;SDS011;23625;48.784;9.336;2023-05-10T14:15:22;2.63;;;0.80;;
37785;SDS011;23625;48.784;9.336;2023-05-10T14:17:48;10.27;;;1.40;;
37785;SDS011;23625;48.784;9.336;2023-05-10T14:20:13;2.45;;;0.70;;
37785;SDS011;23625;48.784;9.336;2023-05-10T14:22:39;3.00;;;1.08;;
37785;SDS011;23625;48.784;9.336;2023-05-10T14:25:05;2.42;;;0.82;;
37785;SDS011;23625;48.784;9.336;2023-05-10T14:27:31;4.03;;;0.73;;
37785;SDS011;23625;48.784;9.336;2023-05-10T14:29:57;2.67;;;0.75;;
37785;SDS011;23625;48.784;9.336;2023-05-10T14:32:23;2.13;;;0.70;;
37785;SDS011;23625;48.784;9.336;2023-05-10T14:34:48;5.70;;;0.90;;
37785;SDS011;23625;48.784;9.336;2023-05-10T14:37:14;2.28;;;0.45;;
37785;SDS011;23625;48.784;9.336;2023-05-10T14:39:40;4.10;;;0.93;;
37785;SDS011;23625;48.784;9.336;2023-05-10T14:42:07;1.92;;;0.80;;
37785;SDS011;23625;48.784;9.336;2023-05-10T14:44:33;3.38;;;0.80;;
37785;SDS011;23625;48.784;9.336;2023-05-10T14:46:59;5.43;;;1.05;;
37785;SDS011;23625;48.784;9.336;2023-05-10T14:49:24;3.83;;;0.82;;
37785;SDS011;23625;48.784;9.336;2023-05-10T14:51:51;3.25;;;1.23;;
37785;SDS011;23625;48.784;9.336;2023-05-10T14:54:17;2.05;;;1.00;;
37785;SDS011;23625;48.784;9.336;2023-05-10T14:56:42;2.58;;;0.90;;
37785;SDS011;23625;48.784;9.336;2023-05-10T14:59:08;2.88;;;0.80;;
37785;SDS011;23625;48.784;9.336;2023-05-10T15:01:34;2.20;;;0.80;;
37785;SDS011;23625;48.784;9.336;2023-05-10T15:04:02;1.83;;;0.60;;
37785;SDS011;23625;48.784;9.336;2023-05-10T15:06:31;2.53;;;0.63;;
37785;SDS011;23625;48.784;9.336;2023-05-10T15:08:58;2.35;;;0.65;;
37785;SDS011;23625;48.784;9.336;2023-05-10T15:11:25;7.07;;;0.80;;
37785;SDS011;23625;48.784;9.336;2023-05-10T15:13:51;5.45;;;0.60;;
37785;SDS011;23625;48.784;9.336;2023-05-10T15:16:16;2.28;;;0.68;;
37785;SDS011;23625;48.784;9.336;2023-05-10T15:18:42;2.50;;;0.60;;
37785;SDS011;23625;48.784;9.336;2023-05-10T15:21:08;3.03;;;0.70;;
37785;SDS011;23625;48.784;9.336;2023-05-10T15:23:33;2.45;;;0.47;;
37785;SDS011;23625;48.784;9.336;2023-05-10T15:25:59;3.13;;;0.52;;
37785;SDS011;23625;48.784;9.336;2023-05-10T15:28:25;5.18;;;0.88;;